Time;durP1;ratioP1;P1;durP2;ratioP2;P2;SDS_P1;SDS_P2;PMS_P1;PMS_P2;Temp;Humidity;BMP_temperature;BMP_pressure;BME280_temperature;BME280_humidity;BME280_pressure;Samples;Min_cycle;Max_cycle;Signal;HPM_P1;HPM_P2
2023/10/14 00:01:34;;;;;;;;;;;;;;;22.57;55.56;101275.38;7392360;19;1846;-42
2023/10/14 00:04:04;;;;;;;;;;;;;;;22.58;55.63;101268.97;7391183;19;1546;-42
2023/10/14 00:06:34;;;;;;;;;;;;;;;22.58;55.68;101280.63;7394153;19;1513;-43
2023/10/14 00:09:11;;;;;;;;;;;;;;;22.57;55.63;101284.28;7392255;19;1805;-43
2023/10/14 00:11:43;;;;;;;;;;;;;;;22.57;55.57;101283.44;7392752;19;1663;-43
2023/10/14 00:14:15;;;;;;;;;;;;;;;22.53;55.60;101282.88;7393029;19;1556;-42
2023/10/14 00:16:49;;;;;;;;;;;;;;;22.58;55.74;101275.22;7391568;19;1800;-43
2023/10/14 00:19:18;;;;;;;;;;;;;;;22.54;55.71;101279.22;7392897;19;1513;-43
2023/10/14 00:21:48;;;;;;;;;;;;;;;22.31;55.61;101240.97;7392031;19;1844;-43
2023/10/14 00:24:25;;;;;;;;;;;;;;;22.53;55.78;101277.50;7378293;19;1437;-43
2023/10/14 00:26:57;;;;;;;;;;;;;;;22.54;55.56;101284.59;7391881;19;1746;-43
2023/10/14 00:29:29;;;;;;;;;;;;;;;22.52;55.71;101275.81;7390231;19;1211;-42
2023/10/14 00:31:58;;;;;;;;;;;;;;;22.50;55.61;101272.41;7392994;19;1861;-43
2023/10/14 00:34:28;;;;;;;;;;;;;;;22.47;55.68;101270.00;7392012;19;1649;-43
2023/10/14 00:36:58;;;;;;;;;;;;;;;22.49;55.75;101270.69;7392002;19;1735;-42
2023/10/14 00:39:27;;;;;;;;;;;;;;;22.54;55.77;101278.34;7391211;19;1389;-43
2023/10/14 00:41:59;;;;;;;;;;;;;;;22.53;55.65;101277.50;7390993;19;1864;-43
2023/10/14 00:44:28;;;;;;;;;;;;;;;22.55;55.66;101272.81;7392436;19;1460;-43
2023/10/14 00:46:57;;;;;;;;;;;;;;;22.50;55.43;101261.63;7392316;19;1916;-44
2023/10/14 00:49:30;;;;;;;;;;;;;;;22.54;55.50;101254.09;7391640;19;1796;-43
2023/10/14 00:52:01;;;;;;;;;;;;;;;22.54;55.46;101259.47;7392570;19;1620;-43
2023/10/14 00:54:41;;;;;;;;;;;;;;;22.52;55.58;101248.88;7391633;19;1873;-43
2023/10/14 00:57:20;;;;;;;;;;;;;;;22.50;55.36;101248.16;7390487;19;1897;-43
2023/10/14 00:59:50;;;;;;;;;;;;;;;22.55;55.45;101258.50;7390959;19;1813;-43
2023/10/14 01:02:26;;;;;;;;;;;;;;;22.48;55.38;101244.72;7396000;19;1868;-43
2023/10/14 01:04:55;;;;;;;;;;;;;;;22.47;55.43;101245.75;7398976;19;1731;-43
2023/10/14 01:07:24;;;;;;;;;;;;;;;22.51;55.33;101244.44;7398807;19;1908;-43
2023/10/14 01:09:54;;;;;;;;;;;;;;;22.49;55.43;101230.28;7398710;19;1726;-43
2023/10/14 01:12:26;;;;;;;;;;;;;;;22.46;55.72;101237.81;7398191;19;1378;-43
2023/10/14 01:14:58;;;;;;;;;;;;;;;22.52;55.35;101239.91;7397582;19;1477;-43
2023/10/14 01:17:29;;;;;;;;;;;;;;;22.53;55.26;101234.38;7396849;19;1611;-43
2023/10/14 01:19:59;;;;;;;;;;;;;;;22.45;55.39;101226.19;7397418;19;1526;-43
2023/10/14 01:22:30;;;;;;;;;;;;;;;22.49;55.35;101230.28;7397344;19;1830;-43
2023/10/14 01:24:58;;;;;;;;;;;;;;;22.53;55.41;101218.19;7380686;19;2518;-43
2023/10/14 01:27:33;;;;;;;;;;;;;;;22.50;55.53;101232.00;7397613;19;1560;-42
2023/10/14 01:30:02;;;;;;;;;;;;;;;22.47;55.62;101229.56;7397974;19;1664;-43
2023/10/14 01:32:43;;;;;;;;;;;;;;;22.47;55.44;101213.41;7399198;19;1050;-43
2023/10/14 01:35:26;;;;;;;;;;;;;;;22.49;55.67;101226.75;7398607;19;1508;-43
2023/10/14 01:37:58;;;;;;;;;;;;;;;22.46;55.38;101227.88;7398046;19;1527;-43
2023/10/14 01:40:35;;;;;;;;;;;;;;;22.46;55.72;101222.47;7397586;19;1924;-43
2023/10/14 01:43:05;;;;;;;;;;;;;;;22.41;55.91;101224.78;7395377;19;1855;-43
2023/10/14 01:45:39;;;;;;;;;;;;;;;22.46;55.86;101219.78;7397048;19;1603;-42
2023/10/14 01:48:14;;;;;;;;;;;;;;;22.48;55.50;101220.47;7396055;19;1483;-43
2023/10/14 01:50:44;;;;;;;;;;;;;;;22.47;55.72;101218.78;7395902;19;1588;-43
2023/10/14 01:53:17;;;;;;;;;;;;;;;22.48;55.68;101223.16;7398092;19;1258;-43
2023/10/14 01:55:47;;;;;;;;;;;;;;;22.47;55.79;101213.41;7394918;19;1770;-43
2023/10/14 01:58:22;;;;;;;;;;;;;;;22.46;55.52;101206.31;7396744;19;1496;-43
2023/10/14 02:00:52;;;;;;;;;;;;;;;22.44;55.65;101192.13;7394555;19;1784;-43
2023/10/14 02:03:22;;;;;;;;;;;;;;;22.48;55.50;101214.25;7393760;19;1850;-43
2023/10/14 02:05:51;;;;;;;;;;;;;;;22.47;55.59;101202.63;7396040;19;1365;-43
2023/10/14 02:08:23;;;;;;;;;;;;;;;22.50;55.46;101214.94;7397175;19;1711;-43
2023/10/14 02:10:54;;;;;;;;;;;;;;;22.46;55.51;101209.00;7395553;19;1552;-43
2023/10/14 02:13:22;;;;;;;;;;;;;;;22.40;55.64;101193.41;7396449;19;1628;-43
2023/10/14 02:15:53;;;;;;;;;;;;;;;22.39;55.65;101205.22;7396833;19;1811;-43
2023/10/14 02:18:23;;;;;;;;;;;;;;;22.38;55.64;101198.09;7396396;19;1207;-43
2023/10/14 02:21:04;;;;;;;;;;;;;;;22.32;55.77;101204.09;7396193;19;1737;-43
2023/10/14 02:23:43;;;;;;;;;;;;;;;22.30;55.76;101206.09;7395235;19;1846;-43
2023/10/14 02:26:15;;;;;;;;;;;;;;;22.31;55.67;101207.78;7382746;19;1523;-43
2023/10/14 02:28:45;;;;;;;;;;;;;;;22.30;55.87;101206.09;7396133;19;1921;-43
2023/10/14 02:31:24;;;;;;;;;;;;;;;22.34;55.75;101207.47;7395867;19;1733;-43
2023/10/14 02:33:53;;;;;;;;;;;;;;;22.27;55.71;101195.63;7395659;19;1830;-43
2023/10/14 02:36:21;;;;;;;;;;;;;;;22.28;55.84;101197.31;7394555;19;1860;-43
2023/10/14 02:38:55;;;;;;;;;;;;;;;22.32;55.68;101199.56;7395916;19;1926;-43
2023/10/14 02:41:26;;;;;;;;;;;;;;;22.32;55.74;101196.00;7395308;19;1587;-43
2023/10/14 02:44:13;;;;;;;;;;;;;;;22.29;55.48;101193.63;7393860;19;1854;-43
2023/10/14 02:46:45;;;;;;;;;;;;;;;22.28;55.75;101187.38;7394460;19;1441;-43
2023/10/14 02:49:14;;;;;;;;;;;;;;;22.30;55.48;101201.53;7394812;19;1571;-43
2023/10/14 02:51:44;;;;;;;;;;;;;;;22.30;55.87;101189.91;7394891;19;1345;-43
2023/10/14 02:54:26;;;;;;;;;;;;;;;22.24;55.74;101170.66;7392636;19;1607;-43
2023/10/14 02:56:59;;;;;;;;;;;;;;;22.23;55.69;101165.38;7393953;19;1780;-43
2023/10/14 02:59:36;;;;;;;;;;;;;;;22.26;55.69;101181.28;7391901;19;1694;-43
2023/10/14 03:02:25;;;;;;;;;;;;;;;22.23;55.55;101187.78;7394790;19;1844;-43
2023/10/14 03:05:08;;;;;;;;;;;;;;;22.22;55.70;101175.31;7394713;19;1801;-43
2023/10/14 03:07:44;;;;;;;;;;;;;;;22.25;55.45;101176.91;7394017;19;1532;-43
2023/10/14 03:10:19;;;;;;;;;;;;;;;22.29;55.56;101178.31;7394842;19;1912;-43
2023/10/14 03:12:49;;;;;;;;;;;;;;;22.23;55.56;101178.84;7395054;19;1389;-43
2023/10/14 03:15:22;;;;;;;;;;;;;;;22.27;55.64;101185.69;7394497;19;1580;-43
2023/10/14 03:17:55;;;;;;;;;;;;;;;22.24;55.60;101170.66;7392700;19;1660;-43
2023/10/14 03:23:10;;;;;;;;;;;;;;;22.23;55.59;101168.91;7388840;19;2286;-42
2023/10/14 03:25:41;;;;;;;;;;;;;;;22.23;55.40;101170.78;7380927;19;1580;-43
2023/10/14 03:28:19;;;;;;;;;;;;;;;22.27;55.52;101169.50;7393910;19;1838;-43
2023/10/14 03:30:54;;;;;;;;;;;;;;;22.29;55.28;101164.00;7393690;19;1559;-43
2023/10/14 03:33:23;;;;;;;;;;;;;;;22.22;55.33;101171.75;7393138;19;1616;-43
2023/10/14 03:35:57;;;;;;;;;;;;;;;22.26;55.32;101170.50;7394255;19;1547;-43
2023/10/14 03:38:33;;;;;;;;;;;;;;;22.26;55.34;101166.97;7392321;19;1525;-43
2023/10/14 03:41:10;;;;;;;;;;;;;;;22.23;55.49;101146.53;7393767;19;1512;-43
2023/10/14 03:43:44;;;;;;;;;;;;;;;22.25;55.52;101158.03;7393739;19;1847;-43
2023/10/14 03:46:23;;;;;;;;;;;;;;;22.21;55.25;101170.91;7391544;19;1839;-43
2023/10/14 03:48:54;;;;;;;;;;;;;;;22.25;55.37;101166.13;7393061;19;1541;-43
2023/10/14 03:51:25;;;;;;;;;;;;;;;22.23;55.34;101152.75;7392783;19;1577;-43
2023/10/14 03:53:54;;;;;;;;;;;;;;;22.23;55.50;101162.69;7393714;19;1544;-43
2023/10/14 03:56:28;;;;;;;;;;;;;;;22.18;55.43;101164.97;7392776;19;1587;-43
2023/10/14 03:58:58;;;;;;;;;;;;;;;22.22;55.50;101150.19;7393754;19;1570;-43
2023/10/14 04:01:29;;;;;;;;;;;;;;;22.20;55.40;101142.28;7392538;19;1524;-43
2023/10/14 04:04:01;;;;;;;;;;;;;;;22.22;55.49;101155.59;7392468;19;1855;-43
2023/10/14 04:06:29;;;;;;;;;;;;;;;22.21;55.32;101148.53;7393937;19;1576;-43
2023/10/14 04:08:58;;;;;;;;;;;;;;;22.16;55.33;101132.81;7392302;19;1775;-43
2023/10/14 04:11:35;;;;;;;;;;;;;;;22.21;55.43;101145.84;7389974;19;1537;-43
2023/10/14 04:14:08;;;;;;;;;;;;;;;22.23;55.28;101154.63;7390904;19;1537;-43
2023/10/14 04:16:48;;;;;;;;;;;;;;;22.24;55.34;101143.72;7391914;19;1537;-43
2023/10/14 04:19:23;;;;;;;;;;;;;;;22.21;55.19;101126.97;7391783;19;1807;-43
2023/10/14 04:21:59;;;;;;;;;;;;;;;22.18;55.34;101133.50;7392126;19;1575;-43
2023/10/14 04:24:43;;;;;;;;;;;;;;;22.19;55.13;101140.59;7390342;19;1951;-43
2023/10/14 04:27:29;;;;;;;;;;;;;;;22.23;55.07;101141.97;7380022;19;1498;-43
2023/10/14 04:30:10;;;;;;;;;;;;;;;22.23;55.20;101136.59;7394532;19;1627;-43
2023/10/14 04:32:47;;;;;;;;;;;;;;;22.20;55.17;101133.34;7394513;19;1002;-44
2023/10/14 04:35:19;;;;;;;;;;;;;;;22.17;55.27;101147.97;7401519;19;1796;-43
2023/10/14 04:37:53;;;;;;;;;;;;;;;22.15;55.11;101147.25;7400875;19;1540;-43
2023/10/14 04:40:35;;;;;;;;;;;;;;;22.27;54.94;101157.91;7399868;19;1590;-43
2023/10/14 04:43:11;;;;;;;;;;;;;;;22.20;55.16;101155.75;7400681;19;1867;-48
2023/10/14 04:45:45;;;;;;;;;;;;;;;22.16;55.17;101154.38;7401066;19;1767;-43
2023/10/14 04:48:14;;;;;;;;;;;;;;;22.18;55.01;101148.81;7400408;19;1782;-43
2023/10/14 04:50:44;;;;;;;;;;;;;;;22.15;55.17;101149.13;7399116;19;1821;-44
2023/10/14 04:53:13;;;;;;;;;;;;;;;22.18;55.07;101155.06;7399996;19;1464;-43
2023/10/14 04:55:43;;;;;;;;;;;;;;;22.19;54.94;101161.28;7399815;19;1469;-43
2023/10/14 04:58:23;;;;;;;;;;;;;;;22.19;55.24;101156.75;7401477;19;1026;-43
2023/10/14 05:00:52;;;;;;;;;;;;;;;22.22;55.07;101151.06;7394961;19;1807;-44
2023/10/14 05:03:22;;;;;;;;;;;;;;;22.26;55.07;101161.56;7397795;19;1857;-43
2023/10/14 05:05:52;;;;;;;;;;;;;;;22.22;55.06;101160.97;7398474;19;1761;-43
2023/10/14 05:08:24;;;;;;;;;;;;;;;22.24;55.01;101162.59;7398661;19;1653;-43
2023/10/14 05:10:52;;;;;;;;;;;;;;;22.19;55.17;101156.75;7397451;19;1389;-44
2023/10/14 05:13:31;;;;;;;;;;;;;;;22.10;54.35;101146.84;7398099;19;1611;-43
2023/10/14 05:16:15;;;;;;;;;;;;;;;22.26;54.33;101154.34;7399552;19;1762;-43
2023/10/14 05:18:58;;;;;;;;;;;;;;;22.28;54.28;101165.81;7396966;19;2010;-44
2023/10/14 05:21:42;;;;;;;;;;;;;;;22.32;54.47;101152.91;7399396;19;1303;-42
2023/10/14 05:24:12;;;;;;;;;;;;;;;22.41;54.33;101152.84;7397360;19;1867;-43
2023/10/14 05:26:45;;;;;;;;;;;;;;;22.41;54.30;101157.41;7384093;19;1913;-43
2023/10/14 05:29:19;;;;;;;;;;;;;;;22.51;51.95;101139.34;7398243;19;1858;-43
2023/10/14 05:31:48;;;;;;;;;;;;;;;22.60;50.40;101160.03;7398787;19;1869;-42
2023/10/14 05:34:17;;;;;;;;;;;;;;;22.58;49.10;101162.00;7398334;19;1825;-42
2023/10/14 05:36:48;;;;;;;;;;;;;;;22.54;49.26;101171.41;7396535;19;1500;-44
2023/10/14 05:39:17;;;;;;;;;;;;;;;22.57;49.77;101154.91;7397319;19;1371;-43
2023/10/14 05:41:48;;;;;;;;;;;;;;;22.38;49.46;101160.38;7398187;19;1782;-43
2023/10/14 05:44:19;;;;;;;;;;;;;;;22.53;50.52;101163.47;7395460;19;1847;-42
2023/10/14 05:46:47;;;;;;;;;;;;;;;22.52;50.40;101167.13;7398132;19;1821;-42
2023/10/14 05:49:16;;;;;;;;;;;;;;;22.48;50.38;101155.78;7396205;19;1563;-42
2023/10/14 05:51:45;;;;;;;;;;;;;;;22.57;51.29;101156.78;7396933;19;1563;-42
2023/10/14 05:54:13;;;;;;;;;;;;;;;22.72;50.99;101166.06;7396475;19;1476;-43
2023/10/14 05:56:43;;;;;;;;;;;;;;;22.63;51.42;101154.31;7397387;19;1403;-43
2023/10/14 05:59:11;;;;;;;;;;;;;;;22.59;52.02;101171.78;7394292;19;1506;-42
2023/10/14 06:01:45;;;;;;;;;;;;;;;22.72;52.26;101152.56;7397720;19;1505;-42
2023/10/14 06:04:14;;;;;;;;;;;;;;;22.81;52.41;101156.22;7395753;19;1855;-42
2023/10/14 06:06:43;;;;;;;;;;;;;;;22.78;52.33;101161.88;7396970;19;1765;-42
2023/10/14 06:09:12;;;;;;;;;;;;;;;22.75;52.78;101152.25;7394734;19;1452;-41
2023/10/14 06:11:40;;;;;;;;;;;;;;;22.76;51.91;101158.50;7395448;19;1571;-50
2023/10/14 06:14:09;;;;;;;;;;;;;;;22.72;53.22;101157.09;7396374;19;1726;-42
2023/10/14 06:16:38;;;;;;;;;;;;;;;22.85;53.29;101171.06;7384043;19;1475;-42
2023/10/14 06:19:12;;;;;;;;;;;;;;;22.75;53.89;101159.50;7391458;19;1817;-42
2023/10/14 06:21:41;;;;;;;;;;;;;;;22.74;54.26;101165.88;7394772;19;1493;-43
2023/10/14 06:24:10;;;;;;;;;;;;;;;22.90;53.88;101182.28;7395122;19;1859;-42
2023/10/14 06:26:39;;;;;;;;;;;;;;;23.11;53.18;101167.69;7378627;19;1624;-42
2023/10/14 06:29:09;;;;;;;;;;;;;;;22.96;53.88;101168.19;7394021;19;1497;-42
2023/10/14 06:31:38;;;;;;;;;;;;;;;23.17;53.29;101162.50;7394044;19;1567;-42
2023/10/14 06:34:10;;;;;;;;;;;;;;;23.20;53.49;101150.59;7387904;19;1432;-42
2023/10/14 06:36:38;;;;;;;;;;;;;;;23.06;54.33;101164.59;7389902;19;1452;-43
2023/10/14 06:39:25;;;;;;;;;;;;;;;23.15;54.20;101180.69;7394234;19;1745;-41
2023/10/14 06:41:53;;;;;;;;;;;;;;;23.19;53.97;101138.09;7390868;19;1715;-39
2023/10/14 06:44:27;;;;;;;;;;;;;;;23.11;53.35;101102.94;7384113;19;1866;-41
2023/10/14 06:46:56;;;;;;;;;;;;;;;23.31;53.76;101160.28;7388321;19;1674;-41
2023/10/14 06:49:32;;;;;;;;;;;;;;;23.19;54.27;101156.97;7393738;19;1501;-41
2023/10/14 06:52:00;;;;;;;;;;;;;;;23.40;53.85;101159.38;7393462;19;1537;-41
2023/10/14 06:54:30;;;;;;;;;;;;;;;23.47;53.13;101162.28;7391543;19;2035;-41
2023/10/14 06:57:02;;;;;;;;;;;;;;;23.28;53.56;101147.97;7390055;19;1817;-41
2023/10/14 06:59:30;;;;;;;;;;;;;;;23.23;53.21;101163.75;7393351;19;1714;-41
2023/10/14 07:02:01;;;;;;;;;;;;;;;23.18;53.80;101152.59;7393330;19;1632;-41
2023/10/14 07:04:37;;;;;;;;;;;;;;;23.29;54.54;101160.44;7389540;19;1845;-41
2023/10/14 07:07:08;;;;;;;;;;;;;;;23.38;53.46;101148.72;7392237;19;1830;-40
2023/10/14 07:09:37;;;;;;;;;;;;;;;23.29;53.61;101159.59;7389352;19;1502;-41
2023/10/14 07:12:13;;;;;;;;;;;;;;;23.28;53.66;101157.88;7392532;19;1825;-41
2023/10/14 07:14:44;;;;;;;;;;;;;;;23.22;54.01;101164.78;7391458;19;1551;-41
2023/10/14 07:17:13;;;;;;;;;;;;;;;23.35;53.58;101143.63;7389894;19;1525;-42
2023/10/14 07:19:43;;;;;;;;;;;;;;;23.40;53.93;101133.22;7390310;19;1583;-41
2023/10/14 07:22:14;;;;;;;;;;;;;;;23.30;54.88;101145.97;7393095;19;1537;-41
2023/10/14 07:24:42;;;;;;;;;;;;;;;23.31;55.13;101136.84;7389163;19;2288;-41
2023/10/14 07:27:11;;;;;;;;;;;;;;;23.31;55.51;101131.44;7376787;19;2430;-41
2023/10/14 07:29:43;;;;;;;;;;;;;;;23.31;55.40;101136.84;7393481;19;1567;-41
2023/10/14 07:32:15;;;;;;;;;;;;;;;23.34;55.25;101130.31;7392371;19;1743;-41
2023/10/14 07:34:46;;;;;;;;;;;;;;;23.23;55.43;101123.28;7390917;19;1920;-41
2023/10/14 07:37:16;;;;;;;;;;;;;;;23.26;55.60;101128.38;7391964;19;1739;-41
2023/10/14 07:39:50;;;;;;;;;;;;;;;23.19;55.36;101122.75;7392353;19;1381;-41
2023/10/14 07:42:18;;;;;;;;;;;;;;;23.24;54.61;101130.38;7391206;19;1756;-41
2023/10/14 07:44:46;;;;;;;;;;;;;;;23.13;53.95;101127.91;7390681;19;1861;-41
2023/10/14 07:47:15;;;;;;;;;;;;;;;23.06;50.11;101121.41;7392467;19;1642;-41
2023/10/14 07:49:46;;;;;;;;;;;;;;;23.08;52.47;101108.63;7392340;19;1689;-41
2023/10/14 07:52:15;;;;;;;;;;;;;;;23.02;52.71;101105.56;7382368;19;1907;-41
2023/10/14 07:54:43;;;;;;;;;;;;;;;22.99;52.26;101119.31;7389136;19;1498;-41
2023/10/14 07:57:12;;;;;;;;;;;;;;;23.09;52.16;101118.44;7385627;19;1678;-41
2023/10/14 07:59:41;;;;;;;;;;;;;;;23.19;52.15;101146.19;7390279;19;1635;-41
2023/10/14 08:02:10;;;;;;;;;;;;;;;23.29;51.75;101125.34;7391557;19;1623;-41
2023/10/14 08:04:38;;;;;;;;;;;;;;;23.41;51.57;101104.38;7386804;19;1846;-41
2023/10/14 08:07:09;;;;;;;;;;;;;;;23.38;51.58;101100.16;7385073;19;1690;-42
2023/10/14 08:09:39;;;;;;;;;;;;;;;23.23;51.92;101091.75;7384441;19;1571;-41
2023/10/14 08:12:08;;;;;;;;;;;;;;;23.30;51.56;101092.00;7386354;19;1480;-41
2023/10/14 08:14:36;;;;;;;;;;;;;;;23.43;50.84;101088.88;7384999;19;1678;-41
2023/10/14 08:17:11;;;;;;;;;;;;;;;23.44;50.83;101087.88;7386670;19;1568;-41
2023/10/14 08:19:42;;;;;;;;;;;;;;;23.26;51.72;101098.69;7387390;19;1678;-41
2023/10/14 08:22:14;;;;;;;;;;;;;;;23.20;51.79;101077.75;7390648;19;1418;-40
2023/10/14 08:24:42;;;;;;;;;;;;;;;23.22;51.27;101081.13;7390058;19;1858;-41
2023/10/14 08:27:12;;;;;;;;;;;;;;;23.27;49.84;101073.41;7376617;19;1449;-40
2023/10/14 08:29:41;;;;;;;;;;;;;;;23.29;50.50;101062.44;7390594;19;1559;-41
2023/10/14 08:32:09;;;;;;;;;;;;;;;23.27;50.01;101065.31;7392255;19;1357;-41
2023/10/14 08:34:38;;;;;;;;;;;;;;;23.33;50.21;101067.38;7387278;19;1678;-41
2023/10/14 08:37:07;;;;;;;;;;;;;;;23.44;49.94;101060.88;7389049;19;1695;-41
2023/10/14 08:39:38;;;;;;;;;;;;;;;23.37;49.66;101052.56;7391318;19;1646;-40
2023/10/14 08:42:09;;;;;;;;;;;;;;;23.38;50.08;101065.06;7390344;19;1556;-40
2023/10/14 08:44:42;;;;;;;;;;;;;;;23.37;50.02;101060.66;7387242;19;1856;-41
2023/10/14 08:47:13;;;;;;;;;;;;;;;23.37;50.46;101049.84;7390851;19;1725;-41
2023/10/14 08:49:42;;;;;;;;;;;;;;;23.36;50.50;101034.69;7391731;19;1734;-41
2023/10/14 08:52:16;;;;;;;;;;;;;;;23.39;50.29;101050.53;7388786;19;1355;-40
2023/10/14 08:54:48;;;;;;;;;;;;;;;23.41;51.00;101043.13;7390291;19;1873;-40
2023/10/14 08:57:17;;;;;;;;;;;;;;;23.36;50.60;101032.00;7380748;19;1812;-40
2023/10/14 08:59:46;;;;;;;;;;;;;;;23.37;50.12;101033.66;7387662;19;1657;-41
2023/10/14 09:02:15;;;;;;;;;;;;;;;23.45;50.67;101040.13;7389791;19;1821;-41
2023/10/14 09:04:45;;;;;;;;;;;;;;;23.50;50.09;101022.47;7382304;19;1874;-41
2023/10/14 09:07:16;;;;;;;;;;;;;;;23.52;50.30;101015.06;7388722;19;1639;-41
2023/10/14 09:09:51;;;;;;;;;;;;;;;23.51;50.52;101015.22;7389661;19;1928;-41
2023/10/14 09:12:20;;;;;;;;;;;;;;;23.46;51.15;101015.69;7389519;19;1501;-41
2023/10/14 09:14:50;;;;;;;;;;;;;;;23.51;50.96;101001.72;7378729;19;1493;-41
2023/10/14 09:17:19;;;;;;;;;;;;;;;23.47;51.27;100995.78;7387884;19;1577;-41
2023/10/14 09:19:48;;;;;;;;;;;;;;;23.57;52.54;101001.91;7389708;19;1623;-40
2023/10/14 09:22:25;;;;;;;;;;;;;;;23.54;52.72;100980.66;7396078;19;1995;-41
2023/10/14 09:24:58;;;;;;;;;;;;;;;23.62;52.84;100987.94;7395454;19;1849;-41
2023/10/14 09:27:30;;;;;;;;;;;;;;;23.69;53.30;100983.56;7383613;19;1726;-41
2023/10/14 09:29:58;;;;;;;;;;;;;;;23.71;53.05;100976.16;7397307;19;1571;-41
2023/10/14 09:32:27;;;;;;;;;;;;;;;23.69;53.96;100972.78;7398666;19;1563;-41
2023/10/14 09:34:57;;;;;;;;;;;;;;;23.75;54.52;100966.72;7394925;19;1913;-41
2023/10/14 09:37:25;;;;;;;;;;;;;;;23.66;52.76;100966.88;7396330;19;1604;-40
2023/10/14 09:39:57;;;;;;;;;;;;;;;23.47;53.46;100924.75;7397314;19;1500;-40
2023/10/14 09:42:29;;;;;;;;;;;;;;;23.71;53.83;100957.25;7396828;19;1686;-41
2023/10/14 09:45:05;;;;;;;;;;;;;;;23.70;53.94;100969.09;7393971;19;1828;-41
2023/10/14 09:47:34;;;;;;;;;;;;;;;23.73;53.35;100966.03;7396553;19;1568;-41
2023/10/14 09:50:03;;;;;;;;;;;;;;;23.69;53.34;100956.56;7396843;19;1448;-41
2023/10/14 09:52:32;;;;;;;;;;;;;;;23.70;52.89;100936.69;7397832;19;1286;-41
2023/10/14 09:55:02;;;;;;;;;;;;;;;23.76;52.88;100941.44;7398260;19;1094;-41
2023/10/14 09:57:33;;;;;;;;;;;;;;;23.81;52.57;100928.34;7392346;19;1845;-42
2023/10/14 10:00:02;;;;;;;;;;;;;;;23.82;52.44;100923.78;7395691;19;1645;-42
2023/10/14 10:02:32;;;;;;;;;;;;;;;23.81;52.68;100927.47;7396984;19;1747;-42
2023/10/14 10:05:00;;;;;;;;;;;;;;;23.81;53.61;100922.94;7394916;19;1842;-42
2023/10/14 10:07:41;;;;;;;;;;;;;;;23.77;53.27;100931.47;7395447;19;1741;-42
2023/10/14 10:10:20;;;;;;;;;;;;;;;23.80;52.89;100915.00;7396939;19;1817;-42
2023/10/14 10:12:55;;;;;;;;;;;;;;;23.86;51.47;100906.22;7397729;19;1707;-42
2023/10/14 10:15:25;;;;;;;;;;;;;;;23.88;51.21;100924.97;7393778;19;1829;-42
2023/10/14 10:17:58;;;;;;;;;;;;;;;23.82;50.92;100908.41;7395414;19;1770;-42
2023/10/14 10:20:30;;;;;;;;;;;;;;;23.79;49.61;100895.22;7395043;19;1909;-42
2023/10/14 10:22:59;;;;;;;;;;;;;;;23.78;49.75;100896.25;7393671;19;2506;-42
2023/10/14 10:25:47;;;;;;;;;;;;;;;23.81;48.74;100879.72;7394951;19;1854;-42
2023/10/14 10:28:39;;;;;;;;;;;;;;;23.78;49.34;100896.25;7381373;19;1763;-42
2023/10/14 10:31:12;;;;;;;;;;;;;;;23.70;48.25;100876.44;7393147;19;1848;-42
2023/10/14 10:33:49;;;;;;;;;;;;;;;23.66;48.13;100854.31;7392605;19;1902;-42
2023/10/14 10:36:22;;;;;;;;;;;;;;;23.73;47.94;100862.59;7394452;19;1897;-42
2023/10/14 10:38:53;;;;;;;;;;;;;;;23.80;47.01;100872.63;7395039;19;1818;-42
2023/10/14 10:41:24;;;;;;;;;;;;;;;23.72;47.01;100861.75;7394593;19;1750;-42
2023/10/14 10:43:52;;;;;;;;;;;;;;;23.65;46.66;100855.31;7391217;19;1747;-42
2023/10/14 10:46:40;;;;;;;;;;;;;;;23.57;47.23;100831.84;7389303;19;1869;-42
2023/10/14 10:49:10;;;;;;;;;;;;;;;23.58;47.60;100844.34;7393303;19;1666;-42
2023/10/14 10:51:40;;;;;;;;;;;;;;;23.53;47.90;100843.13;7394810;19;1909;-41
2023/10/14 10:54:10;;;;;;;;;;;;;;;23.64;47.75;100834.75;7390499;19;1733;-42
2023/10/14 10:56:41;;;;;;;;;;;;;;;23.63;48.19;100823.13;7383680;19;1745;-42
2023/10/14 10:59:09;;;;;;;;;;;;;;;23.55;48.14;100822.22;7385525;19;1455;-42
2023/10/14 11:01:42;;;;;;;;;;;;;;;23.49;48.14;100817.50;7388310;19;1385;-42
2023/10/14 11:04:12;;;;;;;;;;;;;;;23.42;48.38;100820.84;7388313;19;1377;-42
2023/10/14 11:06:41;;;;;;;;;;;;;;;23.40;48.37;100803.97;7385283;19;1864;-42
2023/10/14 11:09:12;;;;;;;;;;;;;;;23.41;48.36;100807.50;7387315;19;1780;-42
2023/10/14 11:11:41;;;;;;;;;;;;;;;23.32;48.67;100801.25;7391553;19;1742;-42
2023/10/14 11:14:17;;;;;;;;;;;;;;;23.31;48.91;100790.59;7388977;19;1632;-42
2023/10/14 11:16:52;;;;;;;;;;;;;;;23.29;48.74;100798.03;7391847;19;1765;-42
2023/10/14 11:19:20;;;;;;;;;;;;;;;23.29;49.06;100782.66;7392970;19;1664;-42
2023/10/14 11:21:49;;;;;;;;;;;;;;;23.23;48.83;100777.94;7395839;19;1733;-42
2023/10/14 11:24:18;;;;;;;;;;;;;;;23.26;49.09;100774.91;7394115;19;1727;-42
2023/10/14 11:26:47;;;;;;;;;;;;;;;23.25;49.09;100775.91;7385664;19;1857;-42
2023/10/14 11:29:16;;;;;;;;;;;;;;;23.27;48.85;100775.75;7392998;19;1748;-46
2023/10/14 11:31:47;;;;;;;;;;;;;;;23.35;48.80;100775.78;7394956;19;1434;-42
2023/10/14 11:34:16;;;;;;;;;;;;;;;23.39;48.89;100767.19;7392853;19;1367;-42
2023/10/14 11:36:44;;;;;;;;;;;;;;;23.43;48.35;100756.91;7393795;19;1491;-42
2023/10/14 11:39:14;;;;;;;;;;;;;;;23.43;48.49;100765.00;7395211;19;1533;-42
2023/10/14 11:41:44;;;;;;;;;;;;;;;23.41;48.31;100767.03;7393595;19;1377;-42
2023/10/14 11:44:17;;;;;;;;;;;;;;;23.39;48.10;100767.19;7393434;19;1470;-42
2023/10/14 11:46:50;;;;;;;;;;;;;;;23.38;47.92;100760.13;7393908;19;1848;-42
2023/10/14 11:49:20;;;;;;;;;;;;;;;23.37;48.23;100750.31;7394987;19;1720;-42
2023/10/14 11:51:48;;;;;;;;;;;;;;;23.30;48.00;100754.69;7393965;19;1655;-42
2023/10/14 11:54:17;;;;;;;;;;;;;;;23.30;48.36;100745.72;7394951;19;1700;-42
2023/10/14 11:56:45;;;;;;;;;;;;;;;23.28;48.12;100747.75;7394268;19;1397;-42
2023/10/14 11:59:14;;;;;;;;;;;;;;;23.25;48.23;100732.75;7393218;19;1829;-42
2023/10/14 12:01:45;;;;;;;;;;;;;;;23.30;48.19;100734.94;7393454;19;1791;-42
2023/10/14 12:04:16;;;;;;;;;;;;;;;23.25;48.55;100727.34;7393681;19;1721;-42
2023/10/14 12:06:44;;;;;;;;;;;;;;;23.29;47.98;100719.78;7393125;19;1846;-42
2023/10/14 12:09:13;;;;;;;;;;;;;;;23.26;48.14;100742.53;7394064;19;1730;-42
2023/10/14 12:11:44;;;;;;;;;;;;;;;23.25;47.79;100732.75;7393624;19;1798;-42
2023/10/14 12:14:15;;;;;;;;;;;;;;;23.21;48.19;100726.00;7393505;19;1552;-42
2023/10/14 12:16:43;;;;;;;;;;;;;;;23.21;48.17;100717.91;7393513;19;1597;-42
2023/10/14 12:19:14;;;;;;;;;;;;;;;23.17;47.78;100717.38;7394316;19;1678;-42
2023/10/14 12:21:45;;;;;;;;;;;;;;;23.05;48.33;100710.59;7394071;19;1801;-42
2023/10/14 12:24:13;;;;;;;;;;;;;;;23.06;48.71;100708.75;7394815;19;1730;-42
2023/10/14 12:26:45;;;;;;;;;;;;;;;23.10;47.77;100710.97;7392627;19;1858;-42
2023/10/14 12:29:14;;;;;;;;;;;;;;;23.00;48.29;100694.88;7380201;19;1773;-42
2023/10/14 12:31:44;;;;;;;;;;;;;;;23.02;47.84;100706.38;7393465;19;1676;-42
2023/10/14 12:34:14;;;;;;;;;;;;;;;22.99;48.28;100685.09;7391470;19;1820;-42
2023/10/14 12:36:46;;;;;;;;;;;;;;;23.02;48.53;100687.50;7393045;19;1643;-42
2023/10/14 12:39:26;;;;;;;;;;;;;;;22.94;48.47;100670.41;7393295;19;1571;-42
2023/10/14 12:42:02;;;;;;;;;;;;;;;22.99;48.49;100674.31;7392731;19;1580;-41
2023/10/14 12:44:32;;;;;;;;;;;;;;;23.00;48.42;100665.22;7391150;19;1530;-41
2023/10/14 12:47:10;;;;;;;;;;;;;;;23.11;48.36;100682.13;7390849;19;1848;-41
2023/10/14 12:49:39;;;;;;;;;;;;;;;23.07;48.36;100675.38;7391232;19;1513;-41
2023/10/14 12:52:15;;;;;;;;;;;;;;;23.02;47.94;100662.41;7394368;19;1175;-41
2023/10/14 12:54:45;;;;;;;;;;;;;;;23.02;48.47;100674.03;7395801;19;1647;-41
2023/10/14 12:57:14;;;;;;;;;;;;;;;22.99;48.17;100660.81;7399014;19;1438;-42
2023/10/14 12:59:42;;;;;;;;;;;;;;;22.97;48.38;100651.22;7399136;19;1610;-41
2023/10/14 13:02:12;;;;;;;;;;;;;;;22.96;47.97;100644.13;7399965;19;1579;-41
2023/10/14 13:04:41;;;;;;;;;;;;;;;22.93;48.21;100653.38;7400125;19;1536;-41
2023/10/14 13:07:12;;;;;;;;;;;;;;;22.96;48.41;100644.13;7396270;19;1873;-41
2023/10/14 13:09:41;;;;;;;;;;;;;;;23.04;48.47;100641.50;7399947;19;1833;-41
2023/10/14 13:12:15;;;;;;;;;;;;;;;23.03;48.30;100637.09;7398890;19;1821;-41
2023/10/14 13:14:44;;;;;;;;;;;;;;;22.95;47.86;100647.84;7395811;19;1592;-41